sensor_id;sensor_type;location;lat;lon;timestamp;P1;durP1;ratioP1;P2;durP2;ratioP2
10418;SDS011;5256;48.728;9.140;2023-03-01T00:01:14;1.10;;;1.10;;
10418;SDS011;5256;48.728;9.140;2023-03-01T00:03:41;1.10;;;1.10;;
10418;SDS011;5256;48.728;9.140;2023-03-01T00:06:07;1.10;;;1.10;;
10418;SDS011;5256;48.728;9.140;2023-03-01T00:08:34;1.20;;;1.20;;
10418;SDS011;5256;48.728;9.140;2023-03-01T00:11:07;1.13;;;1.13;;
10418;SDS011;5256;48.728;9.140;2023-03-01T00:13:33;1.10;;;1.10;;
10418;SDS011;5256;48.728;9.140;2023-03-01T00:16:06;1.20;;;1.20;;
10418;SDS011;5256;48.728;9.140;2023-03-01T00:18:34;1.00;;;1.00;;
10418;SDS011;5256;48.728;9.140;2023-03-01T00:20:59;1.10;;;1.10;;
10418;SDS011;5256;48.728;9.140;2023-03-01T00:23:25;1.03;;;1.03;;
10418;SDS011;5256;48.728;9.140;2023-03-01T00:25:51;1.10;;;1.10;;
10418;SDS011;5256;48.728;9.140;2023-03-01T00:28:17;1.30;;;1.30;;
10418;SDS011;5256;48.728;9.140;2023-03-01T00:30:44;1.10;;;1.10;;
10418;SDS011;5256;48.728;9.140;2023-03-01T00:33:09;1.10;;;1.10;;
10418;SDS011;5256;48.728;9.140;2023-03-01T00:35:35;1.10;;;1.10;;
10418;SDS011;5256;48.728;9.140;2023-03-01T00:38:00;1.10;;;1.10;;
10418;SDS011;5256;48.728;9.140;2023-03-01T00:40:27;1.10;;;1.10;;
10418;SDS011;5256;48.728;9.140;2023-03-01T00:42:53;1.30;;;1.30;;
10418;SDS011;5256;48.728;9.140;2023-03-01T00:45:19;1.10;;;1.10;;
10418;SDS011;5256;48.728;9.140;2023-03-01T00:47:45;1.00;;;1.00;;
10418;SDS011;5256;48.728;9.140;2023-03-01T00:50:12;1.20;;;1.20;;
10418;SDS011;5256;48.728;9.140;2023-03-01T00:52:37;1.10;;;1.10;;
10418;SDS011;5256;48.728;9.140;2023-03-01T00:55:03;1.20;;;1.20;;
10418;SDS011;5256;48.728;9.140;2023-03-01T00:57:30;1.20;;;1.20;;
10418;SDS011;5256;48.728;9.140;2023-03-01T00:59:55;1.20;;;1.20;;
10418;SDS011;5256;48.728;9.140;2023-03-01T01:02:21;1.10;;;1.10;;
10418;SDS011;5256;48.728;9.140;2023-03-01T01:04:47;1.20;;;1.20;;
10418;SDS011;5256;48.728;9.140;2023-03-01T01:07:13;1.10;;;1.10;;
10418;SDS011;5256;48.728;9.140;2023-03-01T01:09:39;1.17;;;1.17;;
10418;SDS011;5256;48.728;9.140;2023-03-01T01:12:05;1.20;;;1.20;;
10418;SDS011;5256;48.728;9.140;2023-03-01T01:14:31;1.20;;;1.20;;
10418;SDS011;5256;48.728;9.140;2023-03-01T01:16:57;1.10;;;1.10;;
10418;SDS011;5256;48.728;9.140;2023-03-01T01:19:23;1.10;;;1.10;;
10418;SDS011;5256;48.728;9.140;2023-03-01T01:21:49;1.20;;;1.20;;
10418;SDS011;5256;48.728;9.140;2023-03-01T01:24:15;1.10;;;1.10;;
10418;SDS011;5256;48.728;9.140;2023-03-01T01:26:41;1.10;;;1.10;;
10418;SDS011;5256;48.728;9.140;2023-03-01T01:29:07;1.20;;;1.20;;
10418;SDS011;5256;48.728;9.140;2023-03-01T01:31:34;1.20;;;1.20;;
10418;SDS011;5256;48.728;9.140;2023-03-01T01:34:02;1.10;;;1.10;;
10418;SDS011;5256;48.728;9.140;2023-03-01T01:36:29;1.20;;;1.20;;
10418;SDS011;5256;48.728;9.140;2023-03-01T01:38:55;1.20;;;1.20;;
10418;SDS011;5256;48.728;9.140;2023-03-01T01:41:21;1.20;;;1.20;;
10418;SDS011;5256;48.728;9.140;2023-03-01T01:46:47;1.20;;;1.20;;
10418;SDS011;5256;48.728;9.140;2023-03-01T01:49:25;1.20;;;1.20;;
10418;SDS011;5256;48.728;9.140;2023-03-01T01:52:09;1.33;;;1.33;;
10418;SDS011;5256;48.728;9.140;2023-03-01T01:54:40;1.30;;;1.30;;
10418;SDS011;5256;48.728;9.140;2023-03-01T01:57:43;1.20;;;1.20;;
10418;SDS011;5256;48.728;9.140;2023-03-01T02:00:06;1.10;;;1.10;;
10418;SDS011;5256;48.728;9.140;2023-03-01T02:02:34;1.30;;;1.30;;
10418;SDS011;5256;48.728;9.140;2023-03-01T02:05:03;1.20;;;1.20;;
10418;SDS011;5256;48.728;9.140;2023-03-01T02:07:38;1.17;;;1.17;;
10418;SDS011;5256;48.728;9.140;2023-03-01T02:10:05;1.13;;;1.13;;
10418;SDS011;5256;48.728;9.140;2023-03-01T02:12:31;1.20;;;1.20;;
10418;SDS011;5256;48.728;9.140;2023-03-01T02:14:58;1.20;;;1.20;;
10418;SDS011;5256;48.728;9.140;2023-03-01T02:17:24;1.20;;;1.20;;
10418;SDS011;5256;48.728;9.140;2023-03-01T02:22:40;1.20;;;1.20;;
10418;SDS011;5256;48.728;9.140;2023-03-01T02:27:51;1.00;;;1.00;;
10418;SDS011;5256;48.728;9.140;2023-03-01T02:30:20;1.20;;;1.20;;
10418;SDS011;5256;48.728;9.140;2023-03-01T02:32:47;1.20;;;1.20;;
10418;SDS011;5256;48.728;9.140;2023-03-01T02:35:14;1.20;;;1.20;;
10418;SDS011;5256;48.728;9.140;2023-03-01T02:37:42;1.17;;;1.17;;
10418;SDS011;5256;48.728;9.140;2023-03-01T02:40:10;1.20;;;1.20;;
10418;SDS011;5256;48.728;9.140;2023-03-01T02:42:45;1.20;;;1.20;;
10418;SDS011;5256;48.728;9.140;2023-03-01T02:45:16;1.20;;;1.20;;
10418;SDS011;5256;48.728;9.140;2023-03-01T02:47:42;1.20;;;1.20;;
10418;SDS011;5256;48.728;9.140;2023-03-01T02:50:13;1.20;;;1.20;;
10418;SDS011;5256;48.728;9.140;2023-03-01T02:52:55;1.20;;;1.20;;
10418;SDS011;5256;48.728;9.140;2023-03-01T02:55:25;1.20;;;1.20;;
10418;SDS011;5256;48.728;9.140;2023-03-01T02:57:52;1.10;;;1.10;;
10418;SDS011;5256;48.728;9.140;2023-03-01T03:00:23;1.20;;;1.20;;
10418;SDS011;5256;48.728;9.140;2023-03-01T03:02:53;1.17;;;1.17;;
10418;SDS011;5256;48.728;9.140;2023-03-01T03:05:21;1.10;;;1.10;;
10418;SDS011;5256;48.728;9.140;2023-03-01T03:07:51;1.20;;;1.20;;
10418;SDS011;5256;48.728;9.140;2023-03-01T03:10:21;1.20;;;1.20;;
10418;SDS011;5256;48.728;9.140;2023-03-01T03:12:50;1.10;;;1.10;;
10418;SDS011;5256;48.728;9.140;2023-03-01T03:15:17;1.10;;;1.10;;
10418;SDS011;5256;48.728;9.140;2023-03-01T03:17:43;1.10;;;1.10;;
10418;SDS011;5256;48.728;9.140;2023-03-01T03:20:10;1.10;;;1.10;;
10418;SDS011;5256;48.728;9.140;2023-03-01T03:22:38;1.10;;;1.10;;
10418;SDS011;5256;48.728;9.140;2023-03-01T03:25:05;1.20;;;1.20;;
10418;SDS011;5256;48.728;9.140;2023-03-01T03:27:35;1.20;;;1.20;;
10418;SDS011;5256;48.728;9.140;2023-03-01T03:30:02;1.10;;;1.10;;
10418;SDS011;5256;48.728;9.140;2023-03-01T03:32:33;1.10;;;1.10;;
10418;SDS011;5256;48.728;9.140;2023-03-01T03:35:00;1.10;;;1.10;;
10418;SDS011;5256;48.728;9.140;2023-03-01T03:37:25;1.13;;;1.13;;
10418;SDS011;5256;48.728;9.140;2023-03-01T03:40:17;0.90;;;0.90;;
10418;SDS011;5256;48.728;9.140;2023-03-01T03:42:42;1.20;;;1.20;;
10418;SDS011;5256;48.728;9.140;2023-03-01T03:45:08;1.10;;;1.10;;
10418;SDS011;5256;48.728;9.140;2023-03-01T03:47:34;1.10;;;1.10;;
10418;SDS011;5256;48.728;9.140;2023-03-01T03:49:59;1.10;;;1.10;;
10418;SDS011;5256;48.728;9.140;2023-03-01T03:52:25;1.10;;;1.10;;
10418;SDS011;5256;48.728;9.140;2023-03-01T03:54:50;1.10;;;1.10;;
10418;SDS011;5256;48.728;9.140;2023-03-01T03:57:16;1.10;;;1.10;;
10418;SDS011;5256;48.728;9.140;2023-03-01T03:59:41;1.10;;;1.10;;
10418;SDS011;5256;48.728;9.140;2023-03-01T04:02:07;0.90;;;0.90;;
10418;SDS011;5256;48.728;9.140;2023-03-01T04:04:33;1.00;;;1.00;;
10418;SDS011;5256;48.728;9.140;2023-03-01T04:06:59;1.10;;;1.10;;
10418;SDS011;5256;48.728;9.140;2023-03-01T04:09:25;1.10;;;1.10;;
10418;SDS011;5256;48.728;9.140;2023-03-01T04:11:50;1.10;;;1.10;;
10418;SDS011;5256;48.728;9.140;2023-03-01T04:14:16;1.10;;;1.10;;
10418;SDS011;5256;48.728;9.140;2023-03-01T04:16:42;1.10;;;1.10;;
10418;SDS011;5256;48.728;9.140;2023-03-01T04:19:07;1.10;;;1.10;;
10418;SDS011;5256;48.728;9.140;2023-03-01T04:21:34;1.10;;;1.10;;
10418;SDS011;5256;48.728;9.140;2023-03-01T04:24:01;1.17;;;1.17;;
10418;SDS011;5256;48.728;9.140;2023-03-01T04:26:28;1.30;;;1.30;;
10418;SDS011;5256;48.728;9.140;2023-03-01T04:28:54;1.10;;;1.10;;
10418;SDS011;5256;48.728;9.140;2023-03-01T04:31:19;1.10;;;1.10;;
10418;SDS011;5256;48.728;9.140;2023-03-01T04:33:50;1.10;;;1.10;;
10418;SDS011;5256;48.728;9.140;2023-03-01T04:36:18;1.20;;;1.20;;
10418;SDS011;5256;48.728;9.140;2023-03-01T04:38:45;1.10;;;1.10;;
10418;SDS011;5256;48.728;9.140;2023-03-01T04:41:12;1.00;;;1.00;;
10418;SDS011;5256;48.728;9.140;2023-03-01T04:43:39;1.00;;;1.00;;
10418;SDS011;5256;48.728;9.140;2023-03-01T04:46:05;1.00;;;1.00;;
10418;SDS011;5256;48.728;9.140;2023-03-01T04:48:36;1.10;;;1.10;;
10418;SDS011;5256;48.728;9.140;2023-03-01T04:51:03;1.20;;;1.20;;
10418;SDS011;5256;48.728;9.140;2023-03-01T04:53:30;1.10;;;1.10;;
10418;SDS011;5256;48.728;9.140;2023-03-01T04:55:57;1.10;;;1.10;;
10418;SDS011;5256;48.728;9.140;2023-03-01T04:58:24;1.10;;;1.10;;
10418;SDS011;5256;48.728;9.140;2023-03-01T05:00:51;1.10;;;1.10;;
10418;SDS011;5256;48.728;9.140;2023-03-01T05:03:17;1.10;;;1.10;;
10418;SDS011;5256;48.728;9.140;2023-03-01T05:05:43;1.20;;;1.20;;
10418;SDS011;5256;48.728;9.140;2023-03-01T05:08:11;1.20;;;1.20;;
10418;SDS011;5256;48.728;9.140;2023-03-01T05:10:42;1.10;;;1.10;;
10418;SDS011;5256;48.728;9.140;2023-03-01T05:13:10;1.10;;;1.10;;
10418;SDS011;5256;48.728;9.140;2023-03-01T05:15:38;1.00;;;1.00;;
10418;SDS011;5256;48.728;9.140;2023-03-01T05:18:04;1.10;;;1.10;;
10418;SDS011;5256;48.728;9.140;2023-03-01T05:20:36;1.20;;;1.20;;
10418;SDS011;5256;48.728;9.140;2023-03-01T05:23:02;1.10;;;1.10;;
10418;SDS011;5256;48.728;9.140;2023-03-01T05:25:30;1.10;;;1.10;;
10418;SDS011;5256;48.728;9.140;2023-03-01T05:27:58;1.07;;;1.07;;
10418;SDS011;5256;48.728;9.140;2023-03-01T05:30:24;1.10;;;1.10;;
10418;SDS011;5256;48.728;9.140;2023-03-01T05:32:50;1.10;;;1.10;;
10418;SDS011;5256;48.728;9.140;2023-03-01T05:35:20;1.20;;;1.20;;
10418;SDS011;5256;48.728;9.140;2023-03-01T05:37:47;1.10;;;1.10;;
10418;SDS011;5256;48.728;9.140;2023-03-01T05:40:15;1.00;;;1.00;;
10418;SDS011;5256;48.728;9.140;2023-03-01T05:42:45;1.00;;;1.00;;
10418;SDS011;5256;48.728;9.140;2023-03-01T05:45:13;1.00;;;1.00;;
10418;SDS011;5256;48.728;9.140;2023-03-01T05:47:40;1.00;;;1.00;;
10418;SDS011;5256;48.728;9.140;2023-03-01T05:50:19;1.00;;;1.00;;
10418;SDS011;5256;48.728;9.140;2023-03-01T05:53:00;1.03;;;1.03;;
10418;SDS011;5256;48.728;9.140;2023-03-01T05:55:27;1.10;;;1.10;;
10418;SDS011;5256;48.728;9.140;2023-03-01T05:57:54;1.03;;;1.03;;
10418;SDS011;5256;48.728;9.140;2023-03-01T06:00:20;1.10;;;1.10;;
10418;SDS011;5256;48.728;9.140;2023-03-01T06:02:49;1.10;;;1.10;;
10418;SDS011;5256;48.728;9.140;2023-03-01T06:05:17;1.00;;;1.00;;
10418;SDS011;5256;48.728;9.140;2023-03-01T06:07:43;1.10;;;1.10;;
10418;SDS011;5256;48.728;9.140;2023-03-01T06:10:09;1.07;;;1.07;;
10418;SDS011;5256;48.728;9.140;2023-03-01T06:12:37;1.03;;;1.03;;
10418;SDS011;5256;48.728;9.140;2023-03-01T06:15:04;1.07;;;1.07;;
10418;SDS011;5256;48.728;9.140;2023-03-01T06:17:32;1.00;;;1.00;;
10418;SDS011;5256;48.728;9.140;2023-03-01T06:20:02;1.10;;;1.10;;
10418;SDS011;5256;48.728;9.140;2023-03-01T06:22:32;0.93;;;0.93;;
10418;SDS011;5256;48.728;9.140;2023-03-01T06:24:58;1.10;;;1.10;;
10418;SDS011;5256;48.728;9.140;2023-03-01T06:27:24;1.00;;;1.00;;
10418;SDS011;5256;48.728;9.140;2023-03-01T06:29:49;1.07;;;1.07;;
10418;SDS011;5256;48.728;9.140;2023-03-01T06:32:15;1.10;;;1.10;;
10418;SDS011;5256;48.728;9.140;2023-03-01T06:34:41;1.00;;;1.00;;
10418;SDS011;5256;48.728;9.140;2023-03-01T06:37:07;1.10;;;1.10;;
10418;SDS011;5256;48.728;9.140;2023-03-01T06:39:33;1.00;;;1.00;;
10418;SDS011;5256;48.728;9.140;2023-03-01T06:41:59;1.10;;;1.10;;
10418;SDS011;5256;48.728;9.140;2023-03-01T06:44:25;1.10;;;1.10;;
10418;SDS011;5256;48.728;9.140;2023-03-01T06:46:51;1.17;;;1.17;;
10418;SDS011;5256;48.728;9.140;2023-03-01T06:49:16;1.10;;;1.10;;
10418;SDS011;5256;48.728;9.140;2023-03-01T06:51:43;1.10;;;1.10;;
10418;SDS011;5256;48.728;9.140;2023-03-01T06:54:09;1.00;;;1.00;;
10418;SDS011;5256;48.728;9.140;2023-03-01T06:56:35;1.00;;;1.00;;
10418;SDS011;5256;48.728;9.140;2023-03-01T06:59:00;1.10;;;1.10;;
10418;SDS011;5256;48.728;9.140;2023-03-01T07:01:27;1.00;;;1.00;;
10418;SDS011;5256;48.728;9.140;2023-03-01T07:03:53;1.00;;;1.00;;
10418;SDS011;5256;48.728;9.140;2023-03-01T07:06:19;1.10;;;1.10;;
10418;SDS011;5256;48.728;9.140;2023-03-01T07:08:45;1.10;;;1.10;;
10418;SDS011;5256;48.728;9.140;2023-03-01T07:11:11;1.00;;;1.00;;
10418;SDS011;5256;48.728;9.140;2023-03-01T07:13:37;1.00;;;1.00;;
10418;SDS011;5256;48.728;9.140;2023-03-01T07:16:02;1.10;;;1.10;;
10418;SDS011;5256;48.728;9.140;2023-03-01T07:18:28;1.00;;;1.00;;
10418;SDS011;5256;48.728;9.140;2023-03-01T07:20:53;1.10;;;1.10;;
10418;SDS011;5256;48.728;9.140;2023-03-01T07:23:19;1.10;;;1.10;;
10418;SDS011;5256;48.728;9.140;2023-03-01T07:25:46;1.10;;;1.10;;
10418;SDS011;5256;48.728;9.140;2023-03-01T07:28:19;1.10;;;1.10;;
10418;SDS011;5256;48.728;9.140;2023-03-01T07:30:47;0.90;;;0.90;;
10418;SDS011;5256;48.728;9.140;2023-03-01T07:33:12;1.00;;;1.00;;
10418;SDS011;5256;48.728;9.140;2023-03-01T07:35:38;1.10;;;1.10;;
10418;SDS011;5256;48.728;9.140;2023-03-01T07:38:03;1.10;;;1.10;;
10418;SDS011;5256;48.728;9.140;2023-03-01T07:40:29;1.00;;;1.00;;
10418;SDS011;5256;48.728;9.140;2023-03-01T07:42:55;0.93;;;0.93;;
10418;SDS011;5256;48.728;9.140;2023-03-01T07:45:21;0.90;;;0.90;;
10418;SDS011;5256;48.728;9.140;2023-03-01T07:47:47;0.93;;;0.93;;
10418;SDS011;5256;48.728;9.140;2023-03-01T07:50:12;0.93;;;0.93;;
10418;SDS011;5256;48.728;9.140;2023-03-01T07:52:38;0.93;;;0.93;;
10418;SDS011;5256;48.728;9.140;2023-03-01T07:55:04;1.00;;;1.00;;
10418;SDS011;5256;48.728;9.140;2023-03-01T07:57:30;1.00;;;1.00;;
10418;SDS011;5256;48.728;9.140;2023-03-01T07:59:56;0.90;;;0.90;;
10418;SDS011;5256;48.728;9.140;2023-03-01T08:02:22;0.90;;;0.90;;
10418;SDS011;5256;48.728;9.140;2023-03-01T08:04:47;0.80;;;0.80;;
10418;SDS011;5256;48.728;9.140;2023-03-01T08:07:13;0.90;;;0.90;;
10418;SDS011;5256;48.728;9.140;2023-03-01T08:09:39;0.93;;;0.93;;
10418;SDS011;5256;48.728;9.140;2023-03-01T08:12:04;0.90;;;0.90;;
10418;SDS011;5256;48.728;9.140;2023-03-01T08:14:31;0.80;;;0.80;;
10418;SDS011;5256;48.728;9.140;2023-03-01T08:16:57;0.80;;;0.80;;
10418;SDS011;5256;48.728;9.140;2023-03-01T08:19:23;0.90;;;0.90;;
10418;SDS011;5256;48.728;9.140;2023-03-01T08:21:48;0.90;;;0.90;;
10418;SDS011;5256;48.728;9.140;2023-03-01T08:24:14;0.93;;;0.93;;
10418;SDS011;5256;48.728;9.140;2023-03-01T08:26:39;0.90;;;0.90;;
10418;SDS011;5256;48.728;9.140;2023-03-01T08:29:05;0.90;;;0.90;;
10418;SDS011;5256;48.728;9.140;2023-03-01T08:31:32;0.90;;;0.90;;
10418;SDS011;5256;48.728;9.140;2023-03-01T08:34:01;0.90;;;0.90;;
10418;SDS011;5256;48.728;9.140;2023-03-01T08:36:30;0.87;;;0.87;;
10418;SDS011;5256;48.728;9.140;2023-03-01T08:39:03;0.80;;;0.80;;
10418;SDS011;5256;48.728;9.140;2023-03-01T08:41:30;0.90;;;0.90;;
10418;SDS011;5256;48.728;9.140;2023-03-01T08:43:56;1.00;;;1.00;;
10418;SDS011;5256;48.728;9.140;2023-03-01T08:46:28;0.90;;;0.90;;
10418;SDS011;5256;48.728;9.140;2023-03-01T08:48:55;0.87;;;0.87;;
10418;SDS011;5256;48.728;9.140;2023-03-01T08:51:21;1.00;;;1.00;;
10418;SDS011;5256;48.728;9.140;2023-03-01T08:53:48;1.00;;;1.00;;
10418;SDS011;5256;48.728;9.140;2023-03-01T08:56:14;0.90;;;0.90;;
10418;SDS011;5256;48.728;9.140;2023-03-01T08:58:43;0.90;;;0.90;;
10418;SDS011;5256;48.728;9.140;2023-03-01T09:01:11;0.80;;;0.80;;
10418;SDS011;5256;48.728;9.140;2023-03-01T09:03:38;1.00;;;1.00;;
10418;SDS011;5256;48.728;9.140;2023-03-01T09:06:04;0.90;;;0.90;;
10418;SDS011;5256;48.728;9.140;2023-03-01T09:08:34;0.90;;;0.90;;
10418;SDS011;5256;48.728;9.140;2023-03-01T09:11:04;1.00;;;1.00;;
10418;SDS011;5256;48.728;9.140;2023-03-01T09:13:31;0.97;;;0.97;;
10418;SDS011;5256;48.728;9.140;2023-03-01T09:15:58;1.00;;;1.00;;
10418;SDS011;5256;48.728;9.140;2023-03-01T09:18:25;0.90;;;0.90;;
10418;SDS011;5256;48.728;9.140;2023-03-01T09:20:50;0.80;;;0.80;;
10418;SDS011;5256;48.728;9.140;2023-03-01T09:23:16;0.90;;;0.90;;
10418;SDS011;5256;48.728;9.140;2023-03-01T09:25:41;0.90;;;0.90;;
10418;SDS011;5256;48.728;9.140;2023-03-01T09:28:07;0.90;;;0.90;;
10418;SDS011;5256;48.728;9.140;2023-03-01T09:30:32;0.80;;;0.80;;
10418;SDS011;5256;48.728;9.140;2023-03-01T09:32:58;0.90;;;0.90;;
10418;SDS011;5256;48.728;9.140;2023-03-01T09:35:24;0.90;;;0.90;;
10418;SDS011;5256;48.728;9.140;2023-03-01T09:37:49;0.80;;;0.80;;
10418;SDS011;5256;48.728;9.140;2023-03-01T09:40:17;0.80;;;0.80;;
10418;SDS011;5256;48.728;9.140;2023-03-01T09:43:06;0.70;;;0.70;;
10418;SDS011;5256;48.728;9.140;2023-03-01T09:45:40;0.90;;;0.90;;
10418;SDS011;5256;48.728;9.140;2023-03-01T09:48:16;0.80;;;0.80;;
10418;SDS011;5256;48.728;9.140;2023-03-01T09:50:48;0.87;;;0.87;;
10418;SDS011;5256;48.728;9.140;2023-03-01T09:53:19;0.80;;;0.80;;
10418;SDS011;5256;48.728;9.140;2023-03-01T09:56:00;0.80;;;0.80;;
10418;SDS011;5256;48.728;9.140;2023-03-01T10:01:50;0.80;;;0.80;;
10418;SDS011;5256;48.728;9.140;2023-03-01T10:04:12;0.80;;;0.80;;
10418;SDS011;5256;48.728;9.140;2023-03-01T10:06:51;0.80;;;0.80;;
10418;SDS011;5256;48.728;9.140;2023-03-01T10:09:37;0.80;;;0.80;;
10418;SDS011;5256;48.728;9.140;2023-03-01T10:12:07;0.80;;;0.80;;
10418;SDS011;5256;48.728;9.140;2023-03-01T10:14:36;0.80;;;0.80;;
10418;SDS011;5256;48.728;9.140;2023-03-01T10:17:24;0.80;;;0.80;;
10418;SDS011;5256;48.728;9.140;2023-03-01T10:20:12;0.80;;;0.80;;
10418;SDS011;5256;48.728;9.140;2023-03-01T10:22:49;0.80;;;0.80;;
10418;SDS011;5256;48.728;9.140;2023-03-01T10:28:16;0.80;;;0.80;;
10418;SDS011;5256;48.728;9.140;2023-03-01T10:30:45;0.90;;;0.90;;
10418;SDS011;5256;48.728;9.140;2023-03-01T10:33:14;0.70;;;0.70;;
10418;SDS011;5256;48.728;9.140;2023-03-01T10:36:02;0.80;;;0.80;;
10418;SDS011;5256;48.728;9.140;2023-03-01T10:38:30;0.70;;;0.70;;
10418;SDS011;5256;48.728;9.140;2023-03-01T10:41:11;0.70;;;0.70;;
10418;SDS011;5256;48.728;9.140;2023-03-01T10:43:44;0.80;;;0.80;;
10418;SDS011;5256;48.728;9.140;2023-03-01T10:51:47;0.80;;;0.80;;
10418;SDS011;5256;48.728;9.140;2023-03-01T10:54:35;0.80;;;0.80;;
10418;SDS011;5256;48.728;9.140;2023-03-01T10:57:01;0.70;;;0.70;;
10418;SDS011;5256;48.728;9.140;2023-03-01T10:59:32;0.80;;;0.80;;
10418;SDS011;5256;48.728;9.140;2023-03-01T11:07:47;0.70;;;0.70;;
10418;SDS011;5256;48.728;9.140;2023-03-01T11:10:27;0.70;;;0.70;;
10418;SDS011;5256;48.728;9.140;2023-03-01T11:13:35;0.70;;;0.70;;
10418;SDS011;5256;48.728;9.140;2023-03-01T11:16:03;1.00;;;1.00;;
10418;SDS011;5256;48.728;9.140;2023-03-01T11:18:34;0.80;;;0.80;;
10418;SDS011;5256;48.728;9.140;2023-03-01T11:20:59;0.60;;;0.60;;
10418;SDS011;5256;48.728;9.140;2023-03-01T11:23:27;0.73;;;0.73;;
10418;SDS011;5256;48.728;9.140;2023-03-01T11:25:56;0.80;;;0.80;;
10418;SDS011;5256;48.728;9.140;2023-03-01T11:28:28;0.70;;;0.70;;
10418;SDS011;5256;48.728;9.140;2023-03-01T11:36:05;0.70;;;0.70;;
10418;SDS011;5256;48.728;9.140;2023-03-01T11:38:36;0.70;;;0.70;;
10418;SDS011;5256;48.728;9.140;2023-03-01T11:41:07;0.70;;;0.70;;
10418;SDS011;5256;48.728;9.140;2023-03-01T11:43:49;0.70;;;0.70;;
10418;SDS011;5256;48.728;9.140;2023-03-01T11:46:24;0.70;;;0.70;;
10418;SDS011;5256;48.728;9.140;2023-03-01T12:02:36;0.70;;;0.70;;
10418;SDS011;5256;48.728;9.140;2023-03-01T12:08:28;0.70;;;0.70;;
10418;SDS011;5256;48.728;9.140;2023-03-01T12:24:53;0.70;;;0.70;;
10418;SDS011;5256;48.728;9.140;2023-03-01T12:30:37;0.60;;;0.60;;
10418;SDS011;5256;48.728;9.140;2023-03-01T12:38:37;0.60;;;0.60;;
10418;SDS011;5256;48.728;9.140;2023-03-01T12:41:28;0.50;;;0.50;;
10418;SDS011;5256;48.728;9.140;2023-03-01T12:52:56;0.60;;;0.60;;
10418;SDS011;5256;48.728;9.140;2023-03-01T12:58:07;0.67;;;0.67;;
10418;SDS011;5256;48.728;9.140;2023-03-01T13:03:55;0.60;;;0.60;;
10418;SDS011;5256;48.728;9.140;2023-03-01T13:06:25;0.53;;;0.53;;
10418;SDS011;5256;48.728;9.140;2023-03-01T13:11:50;0.60;;;0.60;;
10418;SDS011;5256;48.728;9.140;2023-03-01T13:16:52;0.70;;;0.70;;
10418;SDS011;5256;48.728;9.140;2023-03-01T13:19:20;0.60;;;0.60;;
10418;SDS011;5256;48.728;9.140;2023-03-01T13:21:51;0.60;;;0.60;;
10418;SDS011;5256;48.728;9.140;2023-03-01T13:29:43;0.60;;;0.60;;
10418;SDS011;5256;48.728;9.140;2023-03-01T13:32:44;0.60;;;0.60;;
10418;SDS011;5256;48.728;9.140;2023-03-01T13:37:39;0.60;;;0.60;;
10418;SDS011;5256;48.728;9.140;2023-03-01T13:42:48;0.60;;;0.60;;
10418;SDS011;5256;48.728;9.140;2023-03-01T13:45:16;0.57;;;0.57;;
10418;SDS011;5256;48.728;9.140;2023-03-01T13:47:54;0.60;;;0.60;;
10418;SDS011;5256;48.728;9.140;2023-03-01T13:50:24;0.60;;;0.60;;
10418;SDS011;5256;48.728;9.140;2023-03-01T13:52:53;0.60;;;0.60;;
10418;SDS011;5256;48.728;9.140;2023-03-01T13:55:34;0.70;;;0.70;;
10418;SDS011;5256;48.728;9.140;2023-03-01T13:58:18;0.70;;;0.70;;
10418;SDS011;5256;48.728;9.140;2023-03-01T14:00:46;0.63;;;0.63;;
10418;SDS011;5256;48.728;9.140;2023-03-01T14:03:16;0.70;;;0.70;;
10418;SDS011;5256;48.728;9.140;2023-03-01T14:05:58;0.70;;;0.70;;
10418;SDS011;5256;48.728;9.140;2023-03-01T14:08:31;0.70;;;0.70;;
10418;SDS011;5256;48.728;9.140;2023-03-01T14:11:04;0.60;;;0.60;;
10418;SDS011;5256;48.728;9.140;2023-03-01T14:19:47;0.60;;;0.60;;
10418;SDS011;5256;48.728;9.140;2023-03-01T14:22:23;0.60;;;0.60;;
10418;SDS011;5256;48.728;9.140;2023-03-01T14:25:05;0.70;;;0.70;;
10418;SDS011;5256;48.728;9.140;2023-03-01T14:27:43;0.60;;;0.60;;
10418;SDS011;5256;48.728;9.140;2023-03-01T14:30:14;0.60;;;0.60;;
10418;SDS011;5256;48.728;9.140;2023-03-01T14:32:57;0.70;;;0.70;;
10418;SDS011;5256;48.728;9.140;2023-03-01T14:35:29;0.73;;;0.73;;
10418;SDS011;5256;48.728;9.140;2023-03-01T14:37:56;0.70;;;0.70;;
10418;SDS011;5256;48.728;9.140;2023-03-01T14:40:27;0.70;;;0.70;;
10418;SDS011;5256;48.728;9.140;2023-03-01T14:43:01;0.70;;;0.70;;
10418;SDS011;5256;48.728;9.140;2023-03-01T14:45:34;0.80;;;0.80;;
10418;SDS011;5256;48.728;9.140;2023-03-01T14:48:01;0.70;;;0.70;;
10418;SDS011;5256;48.728;9.140;2023-03-01T14:50:30;0.80;;;0.80;;
10418;SDS011;5256;48.728;9.140;2023-03-01T14:52:58;0.70;;;0.70;;
10418;SDS011;5256;48.728;9.140;2023-03-01T14:55:31;0.70;;;0.70;;
10418;SDS011;5256;48.728;9.140;2023-03-01T14:58:09;0.70;;;0.70;;
10418;SDS011;5256;48.728;9.140;2023-03-01T15:00:37;0.70;;;0.70;;
10418;SDS011;5256;48.728;9.140;2023-03-01T15:03:07;0.70;;;0.70;;
10418;SDS011;5256;48.728;9.140;2023-03-01T15:05:38;0.70;;;0.70;;
10418;SDS011;5256;48.728;9.140;2023-03-01T15:08:05;0.70;;;0.70;;
10418;SDS011;5256;48.728;9.140;2023-03-01T15:10:34;0.70;;;0.70;;
10418;SDS011;5256;48.728;9.140;2023-03-01T15:13:11;0.70;;;0.70;;
10418;SDS011;5256;48.728;9.140;2023-03-01T15:15:39;0.70;;;0.70;;
10418;SDS011;5256;48.728;9.140;2023-03-01T15:18:15;0.60;;;0.60;;
10418;SDS011;5256;48.728;9.140;2023-03-01T15:20:44;0.60;;;0.60;;
10418;SDS011;5256;48.728;9.140;2023-03-01T15:23:26;0.70;;;0.70;;
10418;SDS011;5256;48.728;9.140;2023-03-01T15:25:54;0.60;;;0.60;;
10418;SDS011;5256;48.728;9.140;2023-03-01T15:28:23;0.70;;;0.70;;
10418;SDS011;5256;48.728;9.140;2023-03-01T15:30:55;0.70;;;0.70;;
10418;SDS011;5256;48.728;9.140;2023-03-01T15:35:53;0.60;;;0.60;;
10418;SDS011;5256;48.728;9.140;2023-03-01T15:44:16;0.60;;;0.60;;
10418;SDS011;5256;48.728;9.140;2023-03-01T15:47:04;0.70;;;0.70;;
10418;SDS011;5256;48.728;9.140;2023-03-01T15:49:47;0.57;;;0.57;;
10418;SDS011;5256;48.728;9.140;2023-03-01T15:52:21;0.60;;;0.60;;
10418;SDS011;5256;48.728;9.140;2023-03-01T15:54:55;0.60;;;0.60;;
10418;SDS011;5256;48.728;9.140;2023-03-01T15:57:25;0.53;;;0.53;;
10418;SDS011;5256;48.728;9.140;2023-03-01T15:59:51;0.50;;;0.50;;
10418;SDS011;5256;48.728;9.140;2023-03-01T16:02:16;0.60;;;0.60;;
10418;SDS011;5256;48.728;9.140;2023-03-01T16:04:42;0.60;;;0.60;;
10418;SDS011;5256;48.728;9.140;2023-03-01T16:07:08;0.60;;;0.60;;
10418;SDS011;5256;48.728;9.140;2023-03-01T16:09:34;0.53;;;0.53;;
10418;SDS011;5256;48.728;9.140;2023-03-01T16:12:00;0.60;;;0.60;;
10418;SDS011;5256;48.728;9.140;2023-03-01T16:14:26;0.60;;;0.60;;
10418;SDS011;5256;48.728;9.140;2023-03-01T16:16:52;0.60;;;0.60;;
10418;SDS011;5256;48.728;9.140;2023-03-01T16:19:18;0.70;;;0.70;;
10418;SDS011;5256;48.728;9.140;2023-03-01T16:21:43;0.60;;;0.60;;
10418;SDS011;5256;48.728;9.140;2023-03-01T16:24:11;0.67;;;0.67;;
10418;SDS011;5256;48.728;9.140;2023-03-01T16:26:37;0.70;;;0.70;;
10418;SDS011;5256;48.728;9.140;2023-03-01T16:29:03;0.70;;;0.70;;
10418;SDS011;5256;48.728;9.140;2023-03-01T16:31:29;0.73;;;0.73;;
10418;SDS011;5256;48.728;9.140;2023-03-01T16:33:55;0.70;;;0.70;;
10418;SDS011;5256;48.728;9.140;2023-03-01T16:36:23;0.70;;;0.70;;
10418;SDS011;5256;48.728;9.140;2023-03-01T16:38:51;0.60;;;0.60;;
10418;SDS011;5256;48.728;9.140;2023-03-01T16:41:18;0.70;;;0.70;;
10418;SDS011;5256;48.728;9.140;2023-03-01T16:43:45;0.70;;;0.70;;
10418;SDS011;5256;48.728;9.140;2023-03-01T16:46:12;0.70;;;0.70;;
10418;SDS011;5256;48.728;9.140;2023-03-01T16:48:40;0.70;;;0.70;;
10418;SDS011;5256;48.728;9.140;2023-03-01T16:51:06;0.70;;;0.70;;
10418;SDS011;5256;48.728;9.140;2023-03-01T16:53:32;0.80;;;0.80;;
10418;SDS011;5256;48.728;9.140;2023-03-01T16:56:00;0.80;;;0.80;;
10418;SDS011;5256;48.728;9.140;2023-03-01T16:58:27;0.70;;;0.70;;
10418;SDS011;5256;48.728;9.140;2023-03-01T17:00:53;0.60;;;0.60;;
10418;SDS011;5256;48.728;9.140;2023-03-01T17:03:20;0.80;;;0.80;;
10418;SDS011;5256;48.728;9.140;2023-03-01T17:05:46;0.70;;;0.70;;
10418;SDS011;5256;48.728;9.140;2023-03-01T17:08:12;0.60;;;0.60;;